sensor_id;sensor_type;location;lat;lon;timestamp;pressure;altitude;pressure_sealevel;temperature;humidity
9257;BME280;4665;51.368;6.782;2023-05-09T00:02:14;101504.00;;;15.42;100.00
9257;BME280;4665;51.368;6.782;2023-05-09T00:04:40;101490.91;;;15.39;100.00
9257;BME280;4665;51.368;6.782;2023-05-09T00:07:05;101496.09;;;15.41;100.00
9257;BME280;4665;51.368;6.782;2023-05-09T00:09:31;101482.53;;;15.34;100.00
9257;BME280;4665;51.368;6.782;2023-05-09T00:11:56;101459.72;;;15.30;100.00
9257;BME280;4665;51.368;6.782;2023-05-09T00:14:22;101481.34;;;15.45;100.00
9257;BME280;4665;51.368;6.782;2023-05-09T00:16:48;101453.53;;;15.29;100.00
9257;BME280;4665;51.368;6.782;2023-05-09T00:19:14;101461.91;;;15.34;100.00
9257;BME280;4665;51.368;6.782;2023-05-09T00:21:40;101473.44;;;15.43;100.00
9257;BME280;4665;51.368;6.782;2023-05-09T00:24:05;101483.53;;;15.41;100.00
9257;BME280;4665;51.368;6.782;2023-05-09T00:26:31;101473.47;;;15.35;100.00
9257;BME280;4665;51.368;6.782;2023-05-09T00:28:56;101471.81;;;15.34;100.00
9257;BME280;4665;51.368;6.782;2023-05-09T00:31:21;101476.16;;;15.35;100.00
9257;BME280;4665;51.368;6.782;2023-05-09T00:33:47;101460.22;;;15.25;100.00
9257;BME280;4665;51.368;6.782;2023-05-09T00:36:12;101457.34;;;15.27;100.00
9257;BME280;4665;51.368;6.782;2023-05-09T00:38:38;101464.06;;;15.31;100.00
9257;BME280;4665;51.368;6.782;2023-05-09T00:41:03;101445.97;;;15.25;100.00
9257;BME280;4665;51.368;6.782;2023-05-09T00:43:29;101451.00;;;15.28;100.00
9257;BME280;4665;51.368;6.782;2023-05-09T00:45:54;101430.88;;;15.15;100.00
9257;BME280;4665;51.368;6.782;2023-05-09T00:48:20;101448.47;;;15.26;100.00
9257;BME280;4665;51.368;6.782;2023-05-09T00:50:46;101439.75;;;15.16;100.00
9257;BME280;4665;51.368;6.782;2023-05-09T00:53:19;101441.59;;;15.24;100.00
9257;BME280;4665;51.368;6.782;2023-05-09T00:55:45;101437.25;;;15.23;100.00
9257;BME280;4665;51.368;6.782;2023-05-09T00:58:11;101425.84;;;15.12;100.00
9257;BME280;4665;51.368;6.782;2023-05-09T01:00:36;101439.56;;;15.18;100.00
9257;BME280;4665;51.368;6.782;2023-05-09T01:03:02;101436.25;;;15.15;100.00
9257;BME280;4665;51.368;6.782;2023-05-09T01:05:37;101427.69;;;15.12;100.00
9257;BME280;4665;51.368;6.782;2023-05-09T01:11:00;101425.69;;;15.14;100.00
9257;BME280;4665;51.368;6.782;2023-05-09T01:13:31;101422.31;;;15.12;100.00
9257;BME280;4665;51.368;6.782;2023-05-09T01:16:06;101423.81;;;15.14;100.00
9257;BME280;4665;51.368;6.782;2023-05-09T01:21:09;101419.47;;;15.13;100.00
9257;BME280;4665;51.368;6.782;2023-05-09T01:23:59;101418.44;;;15.14;100.00
9257;BME280;4665;51.368;6.782;2023-05-09T01:31:51;101411.59;;;15.12;100.00
9257;BME280;4665;51.368;6.782;2023-05-09T01:34:19;101407.56;;;15.08;100.00
9257;BME280;4665;51.368;6.782;2023-05-09T01:36:49;101408.38;;;15.08;100.00
9257;BME280;4665;51.368;6.782;2023-05-09T01:39:16;101407.75;;;15.06;100.00
9257;BME280;4665;51.368;6.782;2023-05-09T01:41:44;101408.56;;;15.07;100.00
9257;BME280;4665;51.368;6.782;2023-05-09T01:44:11;101410.44;;;15.06;100.00
9257;BME280;4665;51.368;6.782;2023-05-09T01:46:38;101411.06;;;15.08;100.00
9257;BME280;4665;51.368;6.782;2023-05-09T01:49:06;101400.34;;;15.08;100.00
9257;BME280;4665;51.368;6.782;2023-05-09T01:51:33;101404.03;;;15.07;100.00
9257;BME280;4665;51.368;6.782;2023-05-09T01:54:00;101381.56;;;15.00;100.00
9257;BME280;4665;51.368;6.782;2023-05-09T01:56:26;101394.13;;;15.08;100.00
9257;BME280;4665;51.368;6.782;2023-05-09T01:58:54;101394.81;;;15.10;100.00
9257;BME280;4665;51.368;6.782;2023-05-09T02:01:20;101399.34;;;15.09;100.00
9257;BME280;4665;51.368;6.782;2023-05-09T02:03:47;101397.34;;;15.11;100.00
9257;BME280;4665;51.368;6.782;2023-05-09T02:06:15;101380.91;;;14.98;100.00
9257;BME280;4665;51.368;6.782;2023-05-09T02:08:42;101380.06;;;14.98;100.00
9257;BME280;4665;51.368;6.782;2023-05-09T02:11:08;101406.72;;;15.07;100.00
9257;BME280;4665;51.368;6.782;2023-05-09T02:13:33;101391.47;;;15.00;100.00
9257;BME280;4665;51.368;6.782;2023-05-09T02:15:59;101401.34;;;15.07;100.00
9257;BME280;4665;51.368;6.782;2023-05-09T02:18:25;101384.59;;;15.05;100.00
9257;BME280;4665;51.368;6.782;2023-05-09T02:20:50;101382.25;;;15.02;100.00
9257;BME280;4665;51.368;6.782;2023-05-09T02:23:16;101394.97;;;15.08;100.00
9257;BME280;4665;51.368;6.782;2023-05-09T02:25:41;101386.41;;;15.13;100.00
9257;BME280;4665;51.368;6.782;2023-05-09T02:28:08;101375.03;;;15.03;100.00
9257;BME280;4665;51.368;6.782;2023-05-09T02:30:38;101386.59;;;15.11;100.00
9257;BME280;4665;51.368;6.782;2023-05-09T02:33:06;101379.53;;;15.10;100.00
9257;BME280;4665;51.368;6.782;2023-05-09T02:35:33;101386.59;;;15.11;100.00
9257;BME280;4665;51.368;6.782;2023-05-09T02:37:59;101384.06;;;15.10;100.00
9257;BME280;4665;51.368;6.782;2023-05-09T02:40:29;101368.00;;;15.02;100.00
9257;BME280;4665;51.368;6.782;2023-05-09T02:42:55;101374.88;;;15.04;100.00
9257;BME280;4665;51.368;6.782;2023-05-09T02:45:20;101387.44;;;15.12;100.00
9257;BME280;4665;51.368;6.782;2023-05-09T02:47:46;101389.97;;;15.13;100.00
9257;BME280;4665;51.368;6.782;2023-05-09T02:50:11;101391.97;;;15.11;100.00
9257;BME280;4665;51.368;6.782;2023-05-09T02:52:37;101387.59;;;15.10;100.00
9257;BME280;4665;51.368;6.782;2023-05-09T02:55:03;101382.91;;;15.12;100.00
9257;BME280;4665;51.368;6.782;2023-05-09T02:57:28;101383.91;;;15.11;100.00
9257;BME280;4665;51.368;6.782;2023-05-09T02:59:54;101384.91;;;15.10;100.00
9257;BME280;4665;51.368;6.782;2023-05-09T03:02:19;101378.88;;;15.08;100.00
9257;BME280;4665;51.368;6.782;2023-05-09T03:04:44;101371.31;;;15.04;100.00
9257;BME280;4665;51.368;6.782;2023-05-09T03:07:10;101380.22;;;15.12;100.00
9257;BME280;4665;51.368;6.782;2023-05-09T03:09:36;101370.00;;;15.08;100.00
9257;BME280;4665;51.368;6.782;2023-05-09T03:12:01;101377.53;;;15.12;100.00
9257;BME280;4665;51.368;6.782;2023-05-09T03:14:28;101382.56;;;15.15;100.00
9257;BME280;4665;51.368;6.782;2023-05-09T03:16:53;101384.25;;;15.17;100.00
9257;BME280;4665;51.368;6.782;2023-05-09T03:19:18;101390.78;;;15.14;100.00
9257;BME280;4665;51.368;6.782;2023-05-09T03:21:44;101372.34;;;15.11;100.00
9257;BME280;4665;51.368;6.782;2023-05-09T03:24:09;101365.13;;;15.03;100.00
9257;BME280;4665;51.368;6.782;2023-05-09T03:26:35;101360.44;;;15.05;100.00
9257;BME280;4665;51.368;6.782;2023-05-09T03:29:01;101358.78;;;15.04;100.00
9257;BME280;4665;51.368;6.782;2023-05-09T03:31:27;101382.06;;;15.12;100.00
9257;BME280;4665;51.368;6.782;2023-05-09T03:33:52;101379.53;;;15.10;100.00
9257;BME280;4665;51.368;6.782;2023-05-09T03:36:17;101377.84;;;15.18;100.00
9257;BME280;4665;51.368;6.782;2023-05-09T03:38:43;101364.81;;;15.06;100.00
9257;BME280;4665;51.368;6.782;2023-05-09T03:41:08;101371.16;;;15.13;100.00
9257;BME280;4665;51.368;6.782;2023-05-09T03:43:34;101380.53;;;15.18;100.00
9257;BME280;4665;51.368;6.782;2023-05-09T03:46:00;101372.69;;;15.16;100.00
9257;BME280;4665;51.368;6.782;2023-05-09T03:48:25;101371.34;;;15.20;100.00
9257;BME280;4665;51.368;6.782;2023-05-09T03:50:50;101369.81;;;15.18;100.00
9257;BME280;4665;51.368;6.782;2023-05-09T03:53:16;101359.09;;;15.09;100.00
9257;BME280;4665;51.368;6.782;2023-05-09T03:55:41;101344.50;;;15.04;100.00
9257;BME280;4665;51.368;6.782;2023-05-09T03:58:07;101348.19;;;15.03;100.00
9257;BME280;4665;51.368;6.782;2023-05-09T04:00:32;101358.06;;;15.10;100.00
9257;BME280;4665;51.368;6.782;2023-05-09T04:02:58;101341.81;;;15.04;100.00
9257;BME280;4665;51.368;6.782;2023-05-09T04:05:23;101345.53;;;15.11;100.00
9257;BME280;4665;51.368;6.782;2023-05-09T04:07:49;101350.38;;;15.15;100.00
9257;BME280;4665;51.368;6.782;2023-05-09T04:10:14;101337.63;;;15.09;100.00
9257;BME280;4665;51.368;6.782;2023-05-09T04:12:40;101330.75;;;15.07;100.00
9257;BME280;4665;51.368;6.782;2023-05-09T04:15:06;101345.31;;;15.12;100.00
9257;BME280;4665;51.368;6.782;2023-05-09T04:17:31;101348.31;;;15.18;100.00
9257;BME280;4665;51.368;6.782;2023-05-09T04:19:57;101345.84;;;15.16;100.00
9257;BME280;4665;51.368;6.782;2023-05-09T04:22:22;101330.25;;;15.03;100.00
9257;BME280;4665;51.368;6.782;2023-05-09T04:24:47;101344.00;;;15.08;100.00
9257;BME280;4665;51.368;6.782;2023-05-09T04:27:13;101356.06;;;15.12;100.00
9257;BME280;4665;51.368;6.782;2023-05-09T04:29:38;101331.94;;;15.04;100.00
9257;BME280;4665;51.368;6.782;2023-05-09T04:32:04;101308.81;;;14.95;100.00
9257;BME280;4665;51.368;6.782;2023-05-09T04:34:29;101304.13;;;14.97;100.00
9257;BME280;4665;51.368;6.782;2023-05-09T04:36:55;101312.19;;;14.97;100.00
9257;BME280;4665;51.368;6.782;2023-05-09T04:39:21;101316.16;;;15.01;100.00
9257;BME280;4665;51.368;6.782;2023-05-09T04:41:46;101302.63;;;14.94;100.00
9257;BME280;4665;51.368;6.782;2023-05-09T04:44:14;101306.13;;;14.95;100.00
9257;BME280;4665;51.368;6.782;2023-05-09T04:46:39;101333.44;;;15.07;100.00
9257;BME280;4665;51.368;6.782;2023-05-09T04:49:05;101321.06;;;14.98;100.00
9257;BME280;4665;51.368;6.782;2023-05-09T04:51:30;101335.31;;;15.06;100.00
9257;BME280;4665;51.368;6.782;2023-05-09T04:53:56;101325.59;;;14.97;100.00
9257;BME280;4665;51.368;6.782;2023-05-09T04:56:21;101324.88;;;15.03;100.00
9257;BME280;4665;51.368;6.782;2023-05-09T04:58:47;101328.41;;;15.04;100.00
9257;BME280;4665;51.368;6.782;2023-05-09T05:01:12;101324.88;;;15.03;100.00
9257;BME280;4665;51.368;6.782;2023-05-09T05:03:38;101316.03;;;14.94;100.00
9257;BME280;4665;51.368;6.782;2023-05-09T05:06:03;101303.97;;;14.90;100.00
9257;BME280;4665;51.368;6.782;2023-05-09T05:08:29;101311.81;;;14.92;100.00
9257;BME280;4665;51.368;6.782;2023-05-09T05:10:54;101304.78;;;14.91;100.00
9257;BME280;4665;51.368;6.782;2023-05-09T05:13:20;101308.13;;;15.01;100.00
9257;BME280;4665;51.368;6.782;2023-05-09T05:15:45;101310.81;;;15.01;100.00
9257;BME280;4665;51.368;6.782;2023-05-09T05:18:11;101299.44;;;14.91;100.00
9257;BME280;4665;51.368;6.782;2023-05-09T05:20:39;101294.41;;;14.88;100.00
9257;BME280;4665;51.368;6.782;2023-05-09T05:23:04;101306.63;;;14.99;100.00
9257;BME280;4665;51.368;6.782;2023-05-09T05:25:30;101306.44;;;15.00;100.00
9257;BME280;4665;51.368;6.782;2023-05-09T05:27:55;101303.78;;;15.00;100.00
9257;BME280;4665;51.368;6.782;2023-05-09T05:30:20;101311.81;;;15.00;100.00
9257;BME280;4665;51.368;6.782;2023-05-09T05:32:46;101285.66;;;14.94;100.00
9257;BME280;4665;51.368;6.782;2023-05-09T05:35:11;101301.75;;;15.02;100.00
9257;BME280;4665;51.368;6.782;2023-05-09T05:37:40;101297.38;;;15.01;100.00
9257;BME280;4665;51.368;6.782;2023-05-09T05:40:06;101276.44;;;14.97;100.00
9257;BME280;4665;51.368;6.782;2023-05-09T05:42:32;101275.13;;;14.92;100.00
9257;BME280;4665;51.368;6.782;2023-05-09T05:44:58;101277.94;;;15.07;100.00
9257;BME280;4665;51.368;6.782;2023-05-09T05:47:33;101278.44;;;15.11;100.00
9257;BME280;4665;51.368;6.782;2023-05-09T05:50:00;101269.56;;;15.02;100.00
9257;BME280;4665;51.368;6.782;2023-05-09T05:52:26;101280.25;;;15.19;100.00
9257;BME280;4665;51.368;6.782;2023-05-09T05:54:52;101254.44;;;15.09;100.00
9257;BME280;4665;51.368;6.782;2023-05-09T05:57:18;101272.66;;;15.22;100.00
9257;BME280;4665;51.368;6.782;2023-05-09T05:59:45;101257.09;;;15.18;100.00
9257;BME280;4665;51.368;6.782;2023-05-09T06:02:11;101243.66;;;15.18;100.00
9257;BME280;4665;51.368;6.782;2023-05-09T06:04:37;101261.75;;;15.32;100.00
9257;BME280;4665;51.368;6.782;2023-05-09T06:07:02;101268.03;;;15.47;100.00
9257;BME280;4665;51.368;6.782;2023-05-09T06:09:28;101257.13;;;15.49;100.00
9257;BME280;4665;51.368;6.782;2023-05-09T06:11:53;101242.03;;;15.48;100.00
9257;BME280;4665;51.368;6.782;2023-05-09T06:14:18;101236.19;;;15.44;100.00
9257;BME280;4665;51.368;6.782;2023-05-09T06:16:44;101226.13;;;15.46;100.00
9257;BME280;4665;51.368;6.782;2023-05-09T06:19:09;101229.28;;;15.50;100.00
9257;BME280;4665;51.368;6.782;2023-05-09T06:21:34;101232.09;;;15.56;100.00
9257;BME280;4665;51.368;6.782;2023-05-09T06:24:00;101216.03;;;15.48;100.00
9257;BME280;4665;51.368;6.782;2023-05-09T06:26:27;101225.00;;;15.64;100.00
9257;BME280;4665;51.368;6.782;2023-05-09T06:28:53;101214.25;;;15.64;100.00
9257;BME280;4665;51.368;6.782;2023-05-09T06:31:18;101199.03;;;15.56;100.00
9257;BME280;4665;51.368;6.782;2023-05-09T06:33:44;101208.56;;;15.67;100.00
9257;BME280;4665;51.368;6.782;2023-05-09T06:36:09;101197.44;;;15.70;100.00
9257;BME280;4665;51.368;6.782;2023-05-09T06:38:35;101186.69;;;15.70;100.00
9257;BME280;4665;51.368;6.782;2023-05-09T06:41:01;101182.69;;;15.74;100.00
9257;BME280;4665;51.368;6.782;2023-05-09T06:43:26;101195.69;;;15.85;100.00
9257;BME280;4665;51.368;6.782;2023-05-09T06:45:52;101183.75;;;15.88;100.00
9257;BME280;4665;51.368;6.782;2023-05-09T06:48:17;101197.31;;;15.94;100.00
9257;BME280;4665;51.368;6.782;2023-05-09T06:50:43;101190.06;;;15.95;100.00
9257;BME280;4665;51.368;6.782;2023-05-09T06:53:08;101185.16;;;15.98;100.00
9257;BME280;4665;51.368;6.782;2023-05-09T06:55:34;101186.09;;;16.06;100.00
9257;BME280;4665;51.368;6.782;2023-05-09T06:57:59;101180.19;;;16.10;100.00
9257;BME280;4665;51.368;6.782;2023-05-09T07:00:24;101172.88;;;16.04;100.00
9257;BME280;4665;51.368;6.782;2023-05-09T07:02:50;101172.63;;;16.14;100.00
9257;BME280;4665;51.368;6.782;2023-05-09T07:05:15;101158.16;;;16.15;100.00
9257;BME280;4665;51.368;6.782;2023-05-09T07:07:41;101161.44;;;16.25;100.00
9257;BME280;4665;51.368;6.782;2023-05-09T07:10:07;101184.09;;;16.46;100.00
9257;BME280;4665;51.368;6.782;2023-05-09T07:12:32;101152.00;;;16.44;100.00
9257;BME280;4665;51.368;6.782;2023-05-09T07:14:58;101151.72;;;16.54;100.00
9257;BME280;4665;51.368;6.782;2023-05-09T07:17:24;101148.66;;;16.57;100.00
9257;BME280;4665;51.368;6.782;2023-05-09T07:19:50;101136.50;;;16.61;100.00
9257;BME280;4665;51.368;6.782;2023-05-09T07:22:15;101163.06;;;16.79;100.00
9257;BME280;4665;51.368;6.782;2023-05-09T07:24:40;101129.84;;;16.72;100.00
9257;BME280;4665;51.368;6.782;2023-05-09T07:27:08;101128.44;;;16.76;100.00
9257;BME280;4665;51.368;6.782;2023-05-09T07:29:33;101124.06;;;16.75;100.00
9257;BME280;4665;51.368;6.782;2023-05-09T07:31:59;101128.63;;;16.74;100.00
9257;BME280;4665;51.368;6.782;2023-05-09T07:34:24;101116.56;;;16.70;100.00
9257;BME280;4665;51.368;6.782;2023-05-09T07:36:50;101124.84;;;16.83;100.00
9257;BME280;4665;51.368;6.782;2023-05-09T07:39:15;101131.88;;;16.85;100.00
9257;BME280;4665;51.368;6.782;2023-05-09T07:41:41;101139.13;;;16.84;100.00
9257;BME280;4665;51.368;6.782;2023-05-09T07:44:06;101136.00;;;16.80;100.00
9257;BME280;4665;51.368;6.782;2023-05-09T07:46:36;101137.81;;;16.80;100.00
9257;BME280;4665;51.368;6.782;2023-05-09T07:49:02;101110.34;;;16.70;100.00
9257;BME280;4665;51.368;6.782;2023-05-09T07:51:28;101116.00;;;16.75;100.00
9257;BME280;4665;51.368;6.782;2023-05-09T07:53:53;101123.38;;;16.81;100.00
9257;BME280;4665;51.368;6.782;2023-05-09T07:56:20;101128.38;;;16.84;100.00
9257;BME280;4665;51.368;6.782;2023-05-09T07:58:47;101096.09;;;16.69;100.00
9257;BME280;4665;51.368;6.782;2023-05-09T08:01:12;101107.41;;;16.79;100.00
9257;BME280;4665;51.368;6.782;2023-05-09T08:03:38;101110.75;;;16.81;100.00
9257;BME280;4665;51.368;6.782;2023-05-09T08:06:03;101091.91;;;16.81;100.00
9257;BME280;4665;51.368;6.782;2023-05-09T08:08:29;101102.03;;;16.94;100.00
9257;BME280;4665;51.368;6.782;2023-05-09T08:10:55;101104.84;;;17.08;100.00
9257;BME280;4665;51.368;6.782;2023-05-09T08:13:20;101067.38;;;17.06;100.00
9257;BME280;4665;51.368;6.782;2023-05-09T08:15:47;101090.22;;;17.32;100.00
9257;BME280;4665;51.368;6.782;2023-05-09T08:18:13;101068.69;;;17.32;100.00
9257;BME280;4665;51.368;6.782;2023-05-09T08:20:39;101069.25;;;17.49;100.00
9257;BME280;4665;51.368;6.782;2023-05-09T08:23:05;101066.03;;;17.60;100.00
9257;BME280;4665;51.368;6.782;2023-05-09T08:25:34;101053.63;;;17.65;100.00
9257;BME280;4665;51.368;6.782;2023-05-09T08:27:59;101054.56;;;17.79;100.00
9257;BME280;4665;51.368;6.782;2023-05-09T08:30:25;101043.47;;;17.82;100.00
9257;BME280;4665;51.368;6.782;2023-05-09T08:32:54;101032.34;;;17.92;100.00
9257;BME280;4665;51.368;6.782;2023-05-09T08:35:20;101029.13;;;17.82;100.00
9257;BME280;4665;51.368;6.782;2023-05-09T08:37:46;101031.31;;;17.72;100.00
9257;BME280;4665;51.368;6.782;2023-05-09T08:40:12;101028.38;;;17.66;100.00
9257;BME280;4665;51.368;6.782;2023-05-09T08:42:38;101043.91;;;17.64;100.00
9257;BME280;4665;51.368;6.782;2023-05-09T08:45:12;101032.31;;;17.64;100.00
9257;BME280;4665;51.368;6.782;2023-05-09T08:47:41;101022.09;;;17.59;100.00
9257;BME280;4665;51.368;6.782;2023-05-09T08:50:11;101022.88;;;17.53;100.00
9257;BME280;4665;51.368;6.782;2023-05-09T08:52:39;101035.00;;;17.64;100.00
9257;BME280;4665;51.368;6.782;2023-05-09T08:55:06;101007.19;;;17.57;100.00
9257;BME280;4665;51.368;6.782;2023-05-09T08:57:32;101018.44;;;17.67;100.00
9257;BME280;4665;51.368;6.782;2023-05-09T09:00:03;101015.78;;;17.74;100.00
9257;BME280;4665;51.368;6.782;2023-05-09T09:02:35;101004.88;;;17.82;100.00
9257;BME280;4665;51.368;6.782;2023-05-09T09:05:01;101012.81;;;17.90;100.00
9257;BME280;4665;51.368;6.782;2023-05-09T09:07:27;100998.81;;;18.01;100.00
9257;BME280;4665;51.368;6.782;2023-05-09T09:09:56;100996.78;;;18.17;100.00
9257;BME280;4665;51.368;6.782;2023-05-09T09:12:22;100997.91;;;18.29;100.00
9257;BME280;4665;51.368;6.782;2023-05-09T09:14:52;100991.94;;;18.34;100.00
9257;BME280;4665;51.368;6.782;2023-05-09T09:17:20;100988.22;;;18.41;100.00
9257;BME280;4665;51.368;6.782;2023-05-09T09:19:51;100988.03;;;18.49;100.00
9257;BME280;4665;51.368;6.782;2023-05-09T09:22:19;100988.47;;;18.53;100.00
9257;BME280;4665;51.368;6.782;2023-05-09T09:24:45;100993.66;;;18.55;100.00
9257;BME280;4665;51.368;6.782;2023-05-09T09:27:10;100981.81;;;18.49;100.00
9257;BME280;4665;51.368;6.782;2023-05-09T09:29:36;100986.78;;;18.45;100.00
9257;BME280;4665;51.368;6.782;2023-05-09T09:32:04;100983.84;;;18.40;100.00
9257;BME280;4665;51.368;6.782;2023-05-09T09:34:30;100976.78;;;18.39;100.00
9257;BME280;4665;51.368;6.782;2023-05-09T09:36:57;100979.91;;;18.36;100.00
9257;BME280;4665;51.368;6.782;2023-05-09T09:39:23;100969.13;;;18.36;100.00
9257;BME280;4665;51.368;6.782;2023-05-09T09:41:48;100971.19;;;18.34;100.00
9257;BME280;4665;51.368;6.782;2023-05-09T09:44:19;100966.41;;;18.36;100.00
9257;BME280;4665;51.368;6.782;2023-05-09T09:46:50;100961.25;;;18.41;100.00
9257;BME280;4665;51.368;6.782;2023-05-09T09:49:23;100958.75;;;18.46;100.00
9257;BME280;4665;51.368;6.782;2023-05-09T09:51:54;100958.00;;;18.59;100.00
9257;BME280;4665;51.368;6.782;2023-05-09T09:54:21;100953.84;;;18.70;100.00
9257;BME280;4665;51.368;6.782;2023-05-09T09:56:48;100951.84;;;18.79;100.00
9257;BME280;4665;51.368;6.782;2023-05-09T09:59:21;100944.38;;;18.81;100.00
9257;BME280;4665;51.368;6.782;2023-05-09T10:02:06;100943.75;;;18.79;100.00
9257;BME280;4665;51.368;6.782;2023-05-09T10:04:36;100942.91;;;18.78;100.00
9257;BME280;4665;51.368;6.782;2023-05-09T10:07:08;100936.22;;;18.74;100.00
9257;BME280;4665;51.368;6.782;2023-05-09T10:09:35;100931.03;;;18.66;100.00
9257;BME280;4665;51.368;6.782;2023-05-09T10:12:04;100931.03;;;18.66;100.00
9257;BME280;4665;51.368;6.782;2023-05-09T10:14:33;100922.94;;;18.66;100.00
9257;BME280;4665;51.368;6.782;2023-05-09T10:17:00;100929.16;;;18.66;100.00
9257;BME280;4665;51.368;6.782;2023-05-09T10:19:27;100930.81;;;18.67;100.00
9257;BME280;4665;51.368;6.782;2023-05-09T10:21:56;100928.72;;;18.63;100.00
9257;BME280;4665;51.368;6.782;2023-05-09T10:24:34;100916.47;;;18.60;100.00
9257;BME280;4665;51.368;6.782;2023-05-09T10:27:05;100911.28;;;18.59;100.00
9257;BME280;4665;51.368;6.782;2023-05-09T10:29:50;100910.47;;;18.65;100.00
9257;BME280;4665;51.368;6.782;2023-05-09T10:32:26;100906.13;;;18.64;100.00
9257;BME280;4665;51.368;6.782;2023-05-09T10:35:02;100903.63;;;18.69;100.00
9257;BME280;4665;51.368;6.782;2023-05-09T10:37:29;100905.72;;;18.74;100.00
9257;BME280;4665;51.368;6.782;2023-05-09T10:39:55;100893.69;;;18.76;100.00
9257;BME280;4665;51.368;6.782;2023-05-09T10:42:22;100887.50;;;18.82;100.00
9257;BME280;4665;51.368;6.782;2023-05-09T10:44:51;100892.28;;;18.87;100.00
9257;BME280;4665;51.368;6.782;2023-05-09T10:47:18;100891.66;;;18.91;100.00
9257;BME280;4665;51.368;6.782;2023-05-09T10:49:44;100887.47;;;18.96;100.00
9257;BME280;4665;51.368;6.782;2023-05-09T10:52:10;100877.94;;;19.00;100.00
9257;BME280;4665;51.368;6.782;2023-05-09T10:54:36;100876.69;;;19.09;100.00
9257;BME280;4665;51.368;6.782;2023-05-09T10:57:02;100872.53;;;19.13;100.00
9257;BME280;4665;51.368;6.782;2023-05-09T10:59:37;100869.03;;;19.12;100.00
9257;BME280;4665;51.368;6.782;2023-05-09T11:02:05;100866.09;;;19.07;100.00
9257;BME280;4665;51.368;6.782;2023-05-09T11:04:38;100857.59;;;19.04;100.00
9257;BME280;4665;51.368;6.782;2023-05-09T11:07:20;100855.72;;;19.04;100.00
9257;BME280;4665;51.368;6.782;2023-05-09T11:10:09;100847.81;;;19.03;100.00
9257;BME280;4665;51.368;6.782;2023-05-09T11:12:54;100840.56;;;18.97;100.00
9257;BME280;4665;51.368;6.782;2023-05-09T11:15:20;100842.41;;;19.03;100.00
9257;BME280;4665;51.368;6.782;2023-05-09T11:17:50;100841.59;;;19.09;100.00
9257;BME280;4665;51.368;6.782;2023-05-09T11:20:15;100832.88;;;19.20;100.00
9257;BME280;4665;51.368;6.782;2023-05-09T11:22:42;100828.47;;;19.26;100.00
9257;BME280;4665;51.368;6.782;2023-05-09T11:25:09;100824.50;;;19.42;100.00
9257;BME280;4665;51.368;6.782;2023-05-09T11:27:43;100815.13;;;19.51;100.00
9257;BME280;4665;51.368;6.782;2023-05-09T11:30:10;100816.72;;;19.65;100.00
9257;BME280;4665;51.368;6.782;2023-05-09T11:32:56;100808.44;;;19.73;100.00
9257;BME280;4665;51.368;6.782;2023-05-09T11:35:23;100804.44;;;19.83;100.00
9257;BME280;4665;51.368;6.782;2023-05-09T11:37:57;100797.50;;;19.93;100.00
9257;BME280;4665;51.368;6.782;2023-05-09T11:40:25;100795.34;;;20.09;100.00
9257;BME280;4665;51.368;6.782;2023-05-09T11:42:52;100782.03;;;20.07;100.00
9257;BME280;4665;51.368;6.782;2023-05-09T11:45:18;100795.81;;;20.06;100.00
9257;BME280;4665;51.368;6.782;2023-05-09T11:47:45;100797.47;;;20.00;100.00
9257;BME280;4665;51.368;6.782;2023-05-09T11:50:13;100785.06;;;19.92;100.00
9257;BME280;4665;51.368;6.782;2023-05-09T11:52:39;100778.00;;;19.91;100.00
9257;BME280;4665;51.368;6.782;2023-05-09T11:55:10;100777.56;;;19.94;100.00
9257;BME280;4665;51.368;6.782;2023-05-09T11:57:50;100773.75;;;20.02;100.00
9257;BME280;4665;51.368;6.782;2023-05-09T12:00:23;100767.31;;;20.03;100.00
9257;BME280;4665;51.368;6.782;2023-05-09T12:02:50;100762.28;;;20.07;100.00
9257;BME280;4665;51.368;6.782;2023-05-09T12:05:18;100758.78;;;20.06;100.00
9257;BME280;4665;51.368;6.782;2023-05-09T12:07:44;100755.25;;;20.06;100.00
9257;BME280;4665;51.368;6.782;2023-05-09T12:10:11;100754.59;;;20.10;100.00
9257;BME280;4665;51.368;6.782;2023-05-09T12:12:42;100742.94;;;20.10;100.00
9257;BME280;4665;51.368;6.782;2023-05-09T12:15:09;100736.28;;;20.12;100.00
9257;BME280;4665;51.368;6.782;2023-05-09T12:17:35;100735.66;;;20.10;100.00
9257;BME280;4665;51.368;6.782;2023-05-09T12:20:01;100736.28;;;20.12;100.00
9257;BME280;4665;51.368;6.782;2023-05-09T12:22:29;100743.78;;;20.10;100.00
9257;BME280;4665;51.368;6.782;2023-05-09T12:24:55;100731.72;;;20.06;100.00
9257;BME280;4665;51.368;6.782;2023-05-09T12:27:22;100724.44;;;20.07;100.00
9257;BME280;4665;51.368;6.782;2023-05-09T12:29:47;100730.88;;;20.12;100.00
9257;BME280;4665;51.368;6.782;2023-05-09T12:32:14;100728.16;;;20.12;100.00
9257;BME280;4665;51.368;6.782;2023-05-09T12:34:41;100710.88;;;20.13;100.00
9257;BME280;4665;51.368;6.782;2023-05-09T12:37:18;100712.47;;;20.21;100.00
9257;BME280;4665;51.368;6.782;2023-05-09T12:39:58;100711.19;;;20.24;100.00
9257;BME280;4665;51.368;6.782;2023-05-09T12:42:27;100714.09;;;20.29;100.00
9257;BME280;4665;51.368;6.782;2023-05-09T12:44:53;100709.31;;;20.31;100.00
9257;BME280;4665;51.368;6.782;2023-05-09T12:47:19;100707.03;;;20.28;100.00
9257;BME280;4665;51.368;6.782;2023-05-09T12:49:48;100708.69;;;20.29;100.00
9257;BME280;4665;51.368;6.782;2023-05-09T12:52:17;100703.34;;;20.22;100.00
9257;BME280;4665;51.368;6.782;2023-05-09T12:54:46;100708.34;;;20.18;100.00
9257;BME280;4665;51.368;6.782;2023-05-09T12:57:23;100716.94;;;20.09;100.00
9257;BME280;4665;51.368;6.782;2023-05-09T12:59:49;100718.47;;;19.98;100.00
9257;BME280;4665;51.368;6.782;2023-05-09T13:02:14;100716.13;;;19.63;100.00
9257;BME280;4665;51.368;6.782;2023-05-09T13:04:41;100716.47;;;19.35;100.00
9257;BME280;4665;51.368;6.782;2023-05-09T13:07:08;100727.19;;;19.10;100.00
9257;BME280;4665;51.368;6.782;2023-05-09T13:09:53;100729.09;;;18.69;100.00
9257;BME280;4665;51.368;6.782;2023-05-09T13:12:18;100726.41;;;18.29;100.00